<?xml version="1.0" encoding="UTF-8" standalone="no" ?>
<gpx xmlns="http://www.topografix.com/GPX/1/1" xmlns:xsi="http://www.w3.org/2001/XMLSchema-instance" xsi:schemaLocation="http://www.topografix.com/GPX/1/1 http://www.topografix.com/GPX/1/1/gpx.xsd" version="1.1" creator="VisuGPX - https://www.visugpx.com">
  <metadata>
    <name>Col de Mallemort</name>
    <desc><![CDATA[Sortie CAF IdF - 18/01/16 - relevé avec appli CAF]]></desc>
  </metadata>
  <trk>
    <name><![CDATA[GPX généré par appli CAF IdF version 55 appareil Nexus 5 Android 6.0.1 (23) consommation 17 fiabilité 55,5% barometre true montée 973 descente 979]]></name>
    <trkseg>
      <trkpt lat="44.4527" lon="6.84867">
        <ele>1678.4798583984</ele>
        <time>2016-01-18T08:02:42Z</time>
      </trkpt>
      <trkpt lat="44.4528" lon="6.84859">
        <ele>1678.8735351562</ele>
        <time>2016-01-18T08:02:52Z</time>
      </trkpt>
      <trkpt lat="44.45284" lon="6.84855">
        <ele>1679.2673339844</ele>
        <time>2016-01-18T08:03:02Z</time>
      </trkpt>
      <trkpt lat="44.45288" lon="6.84848">
        <ele>1679.2673339844</ele>
        <time>2016-01-18T08:03:12Z</time>
      </trkpt>
      <trkpt lat="44.45296" lon="6.84858">
        <ele>1679.2673339844</ele>
        <time>2016-01-18T08:03:22Z</time>
      </trkpt>
      <trkpt lat="44.45303" lon="6.84863">
        <ele>1680.7655029297</ele>
        <time>2016-01-18T08:03:32Z</time>
      </trkpt>
      <trkpt lat="44.45316" lon="6.84872">
        <ele>1680.7655029297</ele>
        <time>2016-01-18T08:03:52Z</time>
      </trkpt>
      <trkpt lat="44.45357" lon="6.84859">
        <ele>1688.5046386719</ele>
        <time>2016-01-18T08:04:47Z</time>
      </trkpt>
      <trkpt lat="44.45441" lon="6.84725">
        <ele>1688.5046386719</ele>
        <time>2016-01-18T08:07:38Z</time>
      </trkpt>
      <trkpt lat="44.45473" lon="6.8473">
        <ele>1722.6772460938</ele>
        <time>2016-01-18T08:09:37Z</time>
      </trkpt>
      <trkpt lat="44.45482" lon="6.84737">
        <ele>1722.6772460938</ele>
        <time>2016-01-18T08:09:54Z</time>
      </trkpt>
      <trkpt lat="44.45486" lon="6.84735">
        <ele>1722.6772460938</ele>
        <time>2016-01-18T08:10:04Z</time>
      </trkpt>
      <trkpt lat="44.45529" lon="6.84691">
        <ele>1737.0036621094</ele>
        <time>2016-01-18T08:10:50Z</time>
      </trkpt>
      <trkpt lat="44.45534" lon="6.84808">
        <ele>1752.9998779297</ele>
        <time>2016-01-18T08:13:26Z</time>
      </trkpt>
      <trkpt lat="44.45527" lon="6.84791">
        <ele>1755.2880859375</ele>
        <time>2016-01-18T08:13:53Z</time>
      </trkpt>
      <trkpt lat="44.45528" lon="6.84794">
        <ele>1755.2880859375</ele>
        <time>2016-01-18T08:14:03Z</time>
      </trkpt>
      <trkpt lat="44.45529" lon="6.84793">
        <ele>1755.2880859375</ele>
        <time>2016-01-18T08:14:13Z</time>
      </trkpt>
      <trkpt lat="44.45561" lon="6.84815">
        <ele>1763.9099121094</ele>
        <time>2016-01-18T08:15:44Z</time>
      </trkpt>
      <trkpt lat="44.45556" lon="6.84819">
        <ele>1763.9099121094</ele>
        <time>2016-01-18T08:15:54Z</time>
      </trkpt>
      <trkpt lat="44.45554" lon="6.84824">
        <ele>1763.9099121094</ele>
        <time>2016-01-18T08:16:06Z</time>
      </trkpt>
      <trkpt lat="44.45554" lon="6.84832">
        <ele>1763.9099121094</ele>
        <time>2016-01-18T08:16:24Z</time>
      </trkpt>
      <trkpt lat="44.45555" lon="6.84832">
        <ele>1763.9099121094</ele>
        <time>2016-01-18T08:16:34Z</time>
      </trkpt>
      <trkpt lat="44.45558" lon="6.84829">
        <ele>1763.9099121094</ele>
        <time>2016-01-18T08:16:44Z</time>
      </trkpt>
      <trkpt lat="44.45559" lon="6.84828">
        <ele>1763.9099121094</ele>
        <time>2016-01-18T08:16:54Z</time>
      </trkpt>
      <trkpt lat="44.45563" lon="6.84833">
        <ele>1763.9099121094</ele>
        <time>2016-01-18T08:17:07Z</time>
      </trkpt>
      <trkpt lat="44.45568" lon="6.84841">
        <ele>1778.0618896484</ele>
        <time>2016-01-18T08:17:26Z</time>
      </trkpt>
      <trkpt lat="44.45576" lon="6.84864">
        <ele>1779.6842041016</ele>
        <time>2016-01-18T08:17:46Z</time>
      </trkpt>
      <trkpt lat="44.45578" lon="6.84876">
        <ele>1779.6842041016</ele>
        <time>2016-01-18T08:17:56Z</time>
      </trkpt>
      <trkpt lat="44.45578" lon="6.84875">
        <ele>1779.6842041016</ele>
        <time>2016-01-18T08:18:06Z</time>
      </trkpt>
      <trkpt lat="44.45659" lon="6.84926">
        <ele>1806.6248779297</ele>
        <time>2016-01-18T08:25:06Z</time>
      </trkpt>
      <trkpt lat="44.45658" lon="6.84935">
        <ele>1806.6248779297</ele>
        <time>2016-01-18T08:25:16Z</time>
      </trkpt>
      <trkpt lat="44.4566" lon="6.84946">
        <ele>1806.6248779297</ele>
        <time>2016-01-18T08:25:34Z</time>
      </trkpt>
      <trkpt lat="44.45665" lon="6.84959">
        <ele>1806.6248779297</ele>
        <time>2016-01-18T08:25:46Z</time>
      </trkpt>
      <trkpt lat="44.45648" lon="6.85021">
        <ele>1819.6566162109</ele>
        <time>2016-01-18T08:27:02Z</time>
      </trkpt>
      <trkpt lat="44.45681" lon="6.85015">
        <ele>1830.3657226562</ele>
        <time>2016-01-18T08:28:08Z</time>
      </trkpt>
      <trkpt lat="44.45678" lon="6.85028">
        <ele>1830.3657226562</ele>
        <time>2016-01-18T08:28:26Z</time>
      </trkpt>
      <trkpt lat="44.45676" lon="6.85035">
        <ele>1830.3657226562</ele>
        <time>2016-01-18T08:28:44Z</time>
      </trkpt>
      <trkpt lat="44.45676" lon="6.85034">
        <ele>1830.3657226562</ele>
        <time>2016-01-18T08:28:54Z</time>
      </trkpt>
      <trkpt lat="44.45676" lon="6.85034">
        <ele>1830.3657226562</ele>
        <time>2016-01-18T08:29:04Z</time>
      </trkpt>
      <trkpt lat="44.45675" lon="6.85032">
        <ele>1830.3657226562</ele>
        <time>2016-01-18T08:29:14Z</time>
      </trkpt>
      <trkpt lat="44.45675" lon="6.85033">
        <ele>1830.3657226562</ele>
        <time>2016-01-18T08:29:24Z</time>
      </trkpt>
      <trkpt lat="44.45673" lon="6.85031">
        <ele>1830.3657226562</ele>
        <time>2016-01-18T08:29:36Z</time>
      </trkpt>
      <trkpt lat="44.45675" lon="6.85025">
        <ele>1830.3657226562</ele>
        <time>2016-01-18T08:29:54Z</time>
      </trkpt>
      <trkpt lat="44.45675" lon="6.85025">
        <ele>1830.3657226562</ele>
        <time>2016-01-18T08:30:04Z</time>
      </trkpt>
      <trkpt lat="44.45677" lon="6.85025">
        <ele>1830.3657226562</ele>
        <time>2016-01-18T08:30:14Z</time>
      </trkpt>
      <trkpt lat="44.45676" lon="6.85025">
        <ele>1830.3657226562</ele>
        <time>2016-01-18T08:30:24Z</time>
      </trkpt>
      <trkpt lat="44.45677" lon="6.85024">
        <ele>1830.3657226562</ele>
        <time>2016-01-18T08:30:34Z</time>
      </trkpt>
      <trkpt lat="44.45678" lon="6.85023">
        <ele>1830.3657226562</ele>
        <time>2016-01-18T08:30:46Z</time>
      </trkpt>
      <trkpt lat="44.4569" lon="6.85009">
        <ele>1830.3657226562</ele>
        <time>2016-01-18T08:31:06Z</time>
      </trkpt>
      <trkpt lat="44.45704" lon="6.84998">
        <ele>1830.3657226562</ele>
        <time>2016-01-18T08:31:26Z</time>
      </trkpt>
      <trkpt lat="44.45708" lon="6.85006">
        <ele>1848.4626464844</ele>
        <time>2016-01-18T08:31:44Z</time>
      </trkpt>
      <trkpt lat="44.45705" lon="6.85013">
        <ele>1848.4626464844</ele>
        <time>2016-01-18T08:31:54Z</time>
      </trkpt>
      <trkpt lat="44.45702" lon="6.85019">
        <ele>1850.8856201172</ele>
        <time>2016-01-18T08:32:06Z</time>
      </trkpt>
      <trkpt lat="44.45702" lon="6.85028">
        <ele>1850.8856201172</ele>
        <time>2016-01-18T08:32:26Z</time>
      </trkpt>
      <trkpt lat="44.4571" lon="6.85018">
        <ele>1850.8856201172</ele>
        <time>2016-01-18T08:32:44Z</time>
      </trkpt>
      <trkpt lat="44.45718" lon="6.85008">
        <ele>1850.8856201172</ele>
        <time>2016-01-18T08:32:54Z</time>
      </trkpt>
      <trkpt lat="44.45723" lon="6.85004">
        <ele>1850.8856201172</ele>
        <time>2016-01-18T08:33:04Z</time>
      </trkpt>
      <trkpt lat="44.45727" lon="6.85002">
        <ele>1850.8856201172</ele>
        <time>2016-01-18T08:33:14Z</time>
      </trkpt>
      <trkpt lat="44.45728" lon="6.84999">
        <ele>1850.8856201172</ele>
        <time>2016-01-18T08:33:24Z</time>
      </trkpt>
      <trkpt lat="44.45726" lon="6.84997">
        <ele>1850.8856201172</ele>
        <time>2016-01-18T08:33:34Z</time>
      </trkpt>
      <trkpt lat="44.45728" lon="6.84995">
        <ele>1850.8856201172</ele>
        <time>2016-01-18T08:33:44Z</time>
      </trkpt>
      <trkpt lat="44.45732" lon="6.85003">
        <ele>1850.8856201172</ele>
        <time>2016-01-18T08:33:54Z</time>
      </trkpt>
      <trkpt lat="44.45736" lon="6.85014">
        <ele>1850.8856201172</ele>
        <time>2016-01-18T08:34:04Z</time>
      </trkpt>
      <trkpt lat="44.45737" lon="6.85027">
        <ele>1850.8856201172</ele>
        <time>2016-01-18T08:34:14Z</time>
      </trkpt>
      <trkpt lat="44.45739" lon="6.85036">
        <ele>1850.8856201172</ele>
        <time>2016-01-18T08:34:24Z</time>
      </trkpt>
      <trkpt lat="44.45739" lon="6.85046">
        <ele>1850.8856201172</ele>
        <time>2016-01-18T08:34:34Z</time>
      </trkpt>
      <trkpt lat="44.45739" lon="6.85055">
        <ele>1850.8856201172</ele>
        <time>2016-01-18T08:34:44Z</time>
      </trkpt>
      <trkpt lat="44.45742" lon="6.85063">
        <ele>1850.8856201172</ele>
        <time>2016-01-18T08:34:54Z</time>
      </trkpt>
      <trkpt lat="44.45744" lon="6.85072">
        <ele>1850.8856201172</ele>
        <time>2016-01-18T08:35:04Z</time>
      </trkpt>
      <trkpt lat="44.45747" lon="6.85076">
        <ele>1850.8856201172</ele>
        <time>2016-01-18T08:35:14Z</time>
      </trkpt>
      <trkpt lat="44.45753" lon="6.85077">
        <ele>1850.8856201172</ele>
        <time>2016-01-18T08:35:26Z</time>
      </trkpt>
      <trkpt lat="44.45756" lon="6.85082">
        <ele>1850.8856201172</ele>
        <time>2016-01-18T08:35:36Z</time>
      </trkpt>
      <trkpt lat="44.45767" lon="6.85079">
        <ele>1850.8856201172</ele>
        <time>2016-01-18T08:35:46Z</time>
      </trkpt>
      <trkpt lat="44.45778" lon="6.85083">
        <ele>1882.9232177734</ele>
        <time>2016-01-18T08:36:06Z</time>
      </trkpt>
      <trkpt lat="44.45791" lon="6.85086">
        <ele>1885.6870117188</ele>
        <time>2016-01-18T08:36:26Z</time>
      </trkpt>
      <trkpt lat="44.45793" lon="6.85089">
        <ele>1887.1350097656</ele>
        <time>2016-01-18T08:36:36Z</time>
      </trkpt>
      <trkpt lat="44.45798" lon="6.85087">
        <ele>1888.33984375</ele>
        <time>2016-01-18T08:36:46Z</time>
      </trkpt>
      <trkpt lat="44.45804" lon="6.85085">
        <ele>1888.33984375</ele>
        <time>2016-01-18T08:36:56Z</time>
      </trkpt>
      <trkpt lat="44.45798" lon="6.8508">
        <ele>1888.33984375</ele>
        <time>2016-01-18T08:37:06Z</time>
      </trkpt>
      <trkpt lat="44.45796" lon="6.85072">
        <ele>1888.33984375</ele>
        <time>2016-01-18T08:37:16Z</time>
      </trkpt>
      <trkpt lat="44.45798" lon="6.8507">
        <ele>1888.33984375</ele>
        <time>2016-01-18T08:37:26Z</time>
      </trkpt>
      <trkpt lat="44.45821" lon="6.85025">
        <ele>1906.21484375</ele>
        <time>2016-01-18T08:39:08Z</time>
      </trkpt>
      <trkpt lat="44.45856" lon="6.84999">
        <ele>1910.1333007812</ele>
        <time>2016-01-18T08:39:36Z</time>
      </trkpt>
      <trkpt lat="44.45848" lon="6.85027">
        <ele>1910.1333007812</ele>
        <time>2016-01-18T08:39:52Z</time>
      </trkpt>
      <trkpt lat="44.45847" lon="6.85031">
        <ele>1910.1333007812</ele>
        <time>2016-01-18T08:40:04Z</time>
      </trkpt>
      <trkpt lat="44.45848" lon="6.85031">
        <ele>1913.0504150391</ele>
        <time>2016-01-18T08:40:37Z</time>
      </trkpt>
      <trkpt lat="44.45854" lon="6.85017">
        <ele>1912.220703125</ele>
        <time>2016-01-18T08:44:29Z</time>
      </trkpt>
      <trkpt lat="44.45857" lon="6.85024">
        <ele>1912.1440429688</ele>
        <time>2016-01-18T08:44:33Z</time>
      </trkpt>
      <trkpt lat="44.45838" lon="6.85056">
        <ele>1911.8428955078</ele>
        <time>2016-01-18T08:44:38Z</time>
      </trkpt>
      <trkpt lat="44.45844" lon="6.85038">
        <ele>1911.9829101562</ele>
        <time>2016-01-18T08:44:48Z</time>
      </trkpt>
      <trkpt lat="44.4585" lon="6.85029">
        <ele>1911.8428955078</ele>
        <time>2016-01-18T08:45:17Z</time>
      </trkpt>
      <trkpt lat="44.45855" lon="6.85028">
        <ele>1911.8428955078</ele>
        <time>2016-01-18T08:46:43Z</time>
      </trkpt>
      <trkpt lat="44.46025" lon="6.85023">
        <ele>1960.251953125</ele>
        <time>2016-01-18T08:53:44Z</time>
      </trkpt>
      <trkpt lat="44.46033" lon="6.85039">
        <ele>1960.251953125</ele>
        <time>2016-01-18T08:54:02Z</time>
      </trkpt>
      <trkpt lat="44.46043" lon="6.85079">
        <ele>1964.3713378906</ele>
        <time>2016-01-18T08:54:44Z</time>
      </trkpt>
      <trkpt lat="44.4606" lon="6.85096">
        <ele>1969.4285888672</ele>
        <time>2016-01-18T08:55:22Z</time>
      </trkpt>
      <trkpt lat="44.46154" lon="6.84944">
        <ele>2015.9802246094</ele>
        <time>2016-01-18T09:02:24Z</time>
      </trkpt>
      <trkpt lat="44.46163" lon="6.84936">
        <ele>2015.9802246094</ele>
        <time>2016-01-18T09:02:34Z</time>
      </trkpt>
      <trkpt lat="44.46173" lon="6.84955">
        <ele>2026.8452148438</ele>
        <time>2016-01-18T09:03:08Z</time>
      </trkpt>
      <trkpt lat="44.46184" lon="6.84956">
        <ele>2028.4675292969</ele>
        <time>2016-01-18T09:03:24Z</time>
      </trkpt>
      <trkpt lat="44.46191" lon="6.84956">
        <ele>2029.7701416016</ele>
        <time>2016-01-18T09:03:34Z</time>
      </trkpt>
      <trkpt lat="44.46197" lon="6.84957">
        <ele>2030.2141113281</ele>
        <time>2016-01-18T09:03:44Z</time>
      </trkpt>
      <trkpt lat="44.46207" lon="6.84963">
        <ele>2032.2329101562</ele>
        <time>2016-01-18T09:04:03Z</time>
      </trkpt>
      <trkpt lat="44.46217" lon="6.84975">
        <ele>2032.2329101562</ele>
        <time>2016-01-18T09:04:24Z</time>
      </trkpt>
      <trkpt lat="44.46238" lon="6.84962">
        <ele>2042.416015625</ele>
        <time>2016-01-18T09:05:46Z</time>
      </trkpt>
      <trkpt lat="44.46234" lon="6.84949">
        <ele>2042.416015625</ele>
        <time>2016-01-18T09:06:06Z</time>
      </trkpt>
      <trkpt lat="44.46236" lon="6.8494">
        <ele>2042.416015625</ele>
        <time>2016-01-18T09:06:16Z</time>
      </trkpt>
      <trkpt lat="44.46238" lon="6.84932">
        <ele>2042.416015625</ele>
        <time>2016-01-18T09:06:36Z</time>
      </trkpt>
      <trkpt lat="44.46248" lon="6.84942">
        <ele>2042.416015625</ele>
        <time>2016-01-18T09:06:54Z</time>
      </trkpt>
      <trkpt lat="44.46255" lon="6.84941">
        <ele>2042.416015625</ele>
        <time>2016-01-18T09:07:04Z</time>
      </trkpt>
      <trkpt lat="44.46259" lon="6.84946">
        <ele>2042.416015625</ele>
        <time>2016-01-18T09:07:14Z</time>
      </trkpt>
      <trkpt lat="44.46264" lon="6.84947">
        <ele>2042.416015625</ele>
        <time>2016-01-18T09:07:26Z</time>
      </trkpt>
      <trkpt lat="44.46268" lon="6.8495">
        <ele>2057.5087890625</ele>
        <time>2016-01-18T09:07:36Z</time>
      </trkpt>
      <trkpt lat="44.46268" lon="6.84946">
        <ele>2057.5087890625</ele>
        <time>2016-01-18T09:07:56Z</time>
      </trkpt>
      <trkpt lat="44.46282" lon="6.84929">
        <ele>2057.5087890625</ele>
        <time>2016-01-18T09:08:36Z</time>
      </trkpt>
      <trkpt lat="44.46293" lon="6.84937">
        <ele>2057.5087890625</ele>
        <time>2016-01-18T09:08:54Z</time>
      </trkpt>
      <trkpt lat="44.46298" lon="6.8494">
        <ele>2057.5087890625</ele>
        <time>2016-01-18T09:09:04Z</time>
      </trkpt>
      <trkpt lat="44.46308" lon="6.84946">
        <ele>2057.5087890625</ele>
        <time>2016-01-18T09:09:16Z</time>
      </trkpt>
      <trkpt lat="44.4631" lon="6.84948">
        <ele>2071.3781738281</ele>
        <time>2016-01-18T09:09:26Z</time>
      </trkpt>
      <trkpt lat="44.46326" lon="6.84939">
        <ele>2074.0786132812</ele>
        <time>2016-01-18T09:09:44Z</time>
      </trkpt>
      <trkpt lat="44.46327" lon="6.84934">
        <ele>2074.0786132812</ele>
        <time>2016-01-18T09:09:56Z</time>
      </trkpt>
      <trkpt lat="44.4644" lon="6.84988">
        <ele>2099.470703125</ele>
        <time>2016-01-18T09:14:29Z</time>
      </trkpt>
      <trkpt lat="44.46442" lon="6.84993">
        <ele>2099.470703125</ele>
        <time>2016-01-18T09:14:39Z</time>
      </trkpt>
      <trkpt lat="44.46441" lon="6.84995">
        <ele>2099.470703125</ele>
        <time>2016-01-18T09:14:49Z</time>
      </trkpt>
      <trkpt lat="44.46479" lon="6.8505">
        <ele>2113.78125</ele>
        <time>2016-01-18T09:16:44Z</time>
      </trkpt>
      <trkpt lat="44.46523" lon="6.85097">
        <ele>2126.3083496094</ele>
        <time>2016-01-18T09:18:13Z</time>
      </trkpt>
      <trkpt lat="44.46571" lon="6.85172">
        <ele>2126.3083496094</ele>
        <time>2016-01-18T09:22:40Z</time>
      </trkpt>
      <trkpt lat="44.46576" lon="6.85176">
        <ele>2126.3083496094</ele>
        <time>2016-01-18T09:22:56Z</time>
      </trkpt>
      <trkpt lat="44.4657" lon="6.85179">
        <ele>2126.3083496094</ele>
        <time>2016-01-18T09:23:06Z</time>
      </trkpt>
      <trkpt lat="44.46568" lon="6.8516">
        <ele>2165.4404296875</ele>
        <time>2016-01-18T09:24:45Z</time>
      </trkpt>
      <trkpt lat="44.46568" lon="6.85126">
        <ele>2165.6887207031</ele>
        <time>2016-01-18T09:25:25Z</time>
      </trkpt>
      <trkpt lat="44.46583" lon="6.85154">
        <ele>2165.6887207031</ele>
        <time>2016-01-18T09:26:42Z</time>
      </trkpt>
      <trkpt lat="44.4658" lon="6.85152">
        <ele>2171.4250488281</ele>
        <time>2016-01-18T09:26:58Z</time>
      </trkpt>
      <trkpt lat="44.46623" lon="6.85178">
        <ele>2196.2282714844</ele>
        <time>2016-01-18T09:31:17Z</time>
      </trkpt>
      <trkpt lat="44.46624" lon="6.85175">
        <ele>2197.5756835938</ele>
        <time>2016-01-18T09:31:27Z</time>
      </trkpt>
      <trkpt lat="44.46671" lon="6.85242">
        <ele>2220.40234375</ele>
        <time>2016-01-18T09:35:30Z</time>
      </trkpt>
      <trkpt lat="44.46734" lon="6.85185">
        <ele>2252.6831054688</ele>
        <time>2016-01-18T09:39:47Z</time>
      </trkpt>
      <trkpt lat="44.46763" lon="6.85108">
        <ele>2268.2485351562</ele>
        <time>2016-01-18T09:43:25Z</time>
      </trkpt>
      <trkpt lat="44.46778" lon="6.85103">
        <ele>2268.5446777344</ele>
        <time>2016-01-18T09:43:55Z</time>
      </trkpt>
      <trkpt lat="44.46831" lon="6.85118">
        <ele>2295.1311035156</ele>
        <time>2016-01-18T09:47:32Z</time>
      </trkpt>
      <trkpt lat="44.46929" lon="6.85098">
        <ele>2322.1352539062</ele>
        <time>2016-01-18T09:56:06Z</time>
      </trkpt>
      <trkpt lat="44.46934" lon="6.85099">
        <ele>2322.1352539062</ele>
        <time>2016-01-18T09:56:23Z</time>
      </trkpt>
      <trkpt lat="44.4694" lon="6.85094">
        <ele>2322.1352539062</ele>
        <time>2016-01-18T09:56:33Z</time>
      </trkpt>
      <trkpt lat="44.47088" lon="6.85016">
        <ele>2344.8005371094</ele>
        <time>2016-01-18T10:04:10Z</time>
      </trkpt>
      <trkpt lat="44.47088" lon="6.85015">
        <ele>2344.6948242188</ele>
        <time>2016-01-18T10:04:11Z</time>
      </trkpt>
      <trkpt lat="44.47078" lon="6.85005">
        <ele>2344.6948242188</ele>
        <time>2016-01-18T10:04:30Z</time>
      </trkpt>
      <trkpt lat="44.47087" lon="6.85014">
        <ele>2344.8005371094</ele>
        <time>2016-01-18T10:05:47Z</time>
      </trkpt>
      <trkpt lat="44.47085" lon="6.85015">
        <ele>2344.8005371094</ele>
        <time>2016-01-18T10:06:03Z</time>
      </trkpt>
      <trkpt lat="44.47085" lon="6.85015">
        <ele>2344.8005371094</ele>
        <time>2016-01-18T10:06:13Z</time>
      </trkpt>
      <trkpt lat="44.47085" lon="6.85015">
        <ele>2344.8005371094</ele>
        <time>2016-01-18T10:06:23Z</time>
      </trkpt>
      <trkpt lat="44.47085" lon="6.85015">
        <ele>2344.8005371094</ele>
        <time>2016-01-18T10:06:33Z</time>
      </trkpt>
      <trkpt lat="44.47085" lon="6.85015">
        <ele>2344.8005371094</ele>
        <time>2016-01-18T10:06:43Z</time>
      </trkpt>
      <trkpt lat="44.47084" lon="6.85015">
        <ele>2344.6948242188</ele>
        <time>2016-01-18T10:06:53Z</time>
      </trkpt>
      <trkpt lat="44.47097" lon="6.85014">
        <ele>2345.3950195312</ele>
        <time>2016-01-18T10:08:06Z</time>
      </trkpt>
      <trkpt lat="44.47104" lon="6.85013">
        <ele>2345.3950195312</ele>
        <time>2016-01-18T10:08:25Z</time>
      </trkpt>
      <trkpt lat="44.47109" lon="6.85015">
        <ele>2345.3950195312</ele>
        <time>2016-01-18T10:08:35Z</time>
      </trkpt>
      <trkpt lat="44.47113" lon="6.8501">
        <ele>2345.3950195312</ele>
        <time>2016-01-18T10:08:45Z</time>
      </trkpt>
      <trkpt lat="44.47118" lon="6.85006">
        <ele>2345.3950195312</ele>
        <time>2016-01-18T10:08:55Z</time>
      </trkpt>
      <trkpt lat="44.47118" lon="6.85006">
        <ele>2345.3950195312</ele>
        <time>2016-01-18T10:09:05Z</time>
      </trkpt>
      <trkpt lat="44.4712" lon="6.85">
        <ele>2345.3950195312</ele>
        <time>2016-01-18T10:09:15Z</time>
      </trkpt>
      <trkpt lat="44.47122" lon="6.84992">
        <ele>2345.3950195312</ele>
        <time>2016-01-18T10:09:25Z</time>
      </trkpt>
      <trkpt lat="44.47124" lon="6.84985">
        <ele>2357.1533203125</ele>
        <time>2016-01-18T10:09:35Z</time>
      </trkpt>
      <trkpt lat="44.47125" lon="6.84984">
        <ele>2358.1494140625</ele>
        <time>2016-01-18T10:09:36Z</time>
      </trkpt>
      <trkpt lat="44.47128" lon="6.84983">
        <ele>2358.1494140625</ele>
        <time>2016-01-18T10:09:46Z</time>
      </trkpt>
      <trkpt lat="44.47124" lon="6.8498">
        <ele>2358.1494140625</ele>
        <time>2016-01-18T10:09:56Z</time>
      </trkpt>
      <trkpt lat="44.47123" lon="6.84983">
        <ele>2358.1494140625</ele>
        <time>2016-01-18T10:10:06Z</time>
      </trkpt>
      <trkpt lat="44.47125" lon="6.84983">
        <ele>2358.1494140625</ele>
        <time>2016-01-18T10:10:16Z</time>
      </trkpt>
      <trkpt lat="44.47125" lon="6.84984">
        <ele>2358.1494140625</ele>
        <time>2016-01-18T10:10:26Z</time>
      </trkpt>
      <trkpt lat="44.47125" lon="6.84986">
        <ele>2358.1494140625</ele>
        <time>2016-01-18T10:10:36Z</time>
      </trkpt>
      <trkpt lat="44.47125" lon="6.84987">
        <ele>2358.1494140625</ele>
        <time>2016-01-18T10:10:46Z</time>
      </trkpt>
      <trkpt lat="44.47129" lon="6.84984">
        <ele>2358.1494140625</ele>
        <time>2016-01-18T10:10:58Z</time>
      </trkpt>
      <trkpt lat="44.47139" lon="6.84986">
        <ele>2358.1494140625</ele>
        <time>2016-01-18T10:11:16Z</time>
      </trkpt>
      <trkpt lat="44.47138" lon="6.84985">
        <ele>2358.1494140625</ele>
        <time>2016-01-18T10:11:26Z</time>
      </trkpt>
      <trkpt lat="44.47138" lon="6.84983">
        <ele>2358.1494140625</ele>
        <time>2016-01-18T10:11:36Z</time>
      </trkpt>
      <trkpt lat="44.47141" lon="6.84987">
        <ele>2368.6735839844</ele>
        <time>2016-01-18T10:11:46Z</time>
      </trkpt>
      <trkpt lat="44.4714" lon="6.84991">
        <ele>2368.6735839844</ele>
        <time>2016-01-18T10:11:56Z</time>
      </trkpt>
      <trkpt lat="44.47144" lon="6.84992">
        <ele>2371.3395996094</ele>
        <time>2016-01-18T10:12:06Z</time>
      </trkpt>
      <trkpt lat="44.47156" lon="6.84992">
        <ele>2371.6091308594</ele>
        <time>2016-01-18T10:12:26Z</time>
      </trkpt>
      <trkpt lat="44.47162" lon="6.84989">
        <ele>2371.6091308594</ele>
        <time>2016-01-18T10:12:36Z</time>
      </trkpt>
      <trkpt lat="44.47166" lon="6.84984">
        <ele>2371.6091308594</ele>
        <time>2016-01-18T10:12:46Z</time>
      </trkpt>
      <trkpt lat="44.47165" lon="6.84976">
        <ele>2371.6091308594</ele>
        <time>2016-01-18T10:12:56Z</time>
      </trkpt>
      <trkpt lat="44.47197" lon="6.84883">
        <ele>2398.2036132812</ele>
        <time>2016-01-18T10:16:24Z</time>
      </trkpt>
      <trkpt lat="44.47193" lon="6.84881">
        <ele>2398.0874023438</ele>
        <time>2016-01-18T10:16:44Z</time>
      </trkpt>
      <trkpt lat="44.47193" lon="6.84881">
        <ele>2398.6264648438</ele>
        <time>2016-01-18T10:16:46Z</time>
      </trkpt>
      <trkpt lat="44.47231" lon="6.84908">
        <ele>2420.1794433594</ele>
        <time>2016-01-18T10:20:42Z</time>
      </trkpt>
      <trkpt lat="44.47234" lon="6.84913">
        <ele>2421.783203125</ele>
        <time>2016-01-18T10:20:52Z</time>
      </trkpt>
      <trkpt lat="44.47234" lon="6.84918">
        <ele>2421.783203125</ele>
        <time>2016-01-18T10:21:02Z</time>
      </trkpt>
      <trkpt lat="44.47276" lon="6.84996">
        <ele>2450.1137695312</ele>
        <time>2016-01-18T10:24:56Z</time>
      </trkpt>
      <trkpt lat="44.47284" lon="6.84995">
        <ele>2450.1137695312</ele>
        <time>2016-01-18T10:25:14Z</time>
      </trkpt>
      <trkpt lat="44.47296" lon="6.84988">
        <ele>2453.0651855469</ele>
        <time>2016-01-18T10:25:32Z</time>
      </trkpt>
      <trkpt lat="44.47302" lon="6.84985">
        <ele>2453.0651855469</ele>
        <time>2016-01-18T10:25:42Z</time>
      </trkpt>
      <trkpt lat="44.47308" lon="6.84987">
        <ele>2453.0651855469</ele>
        <time>2016-01-18T10:25:54Z</time>
      </trkpt>
      <trkpt lat="44.47319" lon="6.84992">
        <ele>2453.0651855469</ele>
        <time>2016-01-18T10:26:12Z</time>
      </trkpt>
      <trkpt lat="44.47315" lon="6.84994">
        <ele>2453.0651855469</ele>
        <time>2016-01-18T10:26:24Z</time>
      </trkpt>
      <trkpt lat="44.47315" lon="6.84996">
        <ele>2453.0651855469</ele>
        <time>2016-01-18T10:26:44Z</time>
      </trkpt>
      <trkpt lat="44.47315" lon="6.84996">
        <ele>2458.5134277344</ele>
        <time>2016-01-18T10:26:54Z</time>
      </trkpt>
      <trkpt lat="44.47332" lon="6.84992">
        <ele>2458.9812011719</ele>
        <time>2016-01-18T10:33:45Z</time>
      </trkpt>
      <trkpt lat="44.47401" lon="6.85099">
        <ele>2458.9812011719</ele>
        <time>2016-01-18T10:37:42Z</time>
      </trkpt>
      <trkpt lat="44.47394" lon="6.85102">
        <ele>2458.9812011719</ele>
        <time>2016-01-18T10:37:52Z</time>
      </trkpt>
      <trkpt lat="44.47392" lon="6.851">
        <ele>2458.9812011719</ele>
        <time>2016-01-18T10:38:02Z</time>
      </trkpt>
      <trkpt lat="44.47394" lon="6.85105">
        <ele>2458.9812011719</ele>
        <time>2016-01-18T10:38:12Z</time>
      </trkpt>
      <trkpt lat="44.47392" lon="6.85111">
        <ele>2458.9812011719</ele>
        <time>2016-01-18T10:38:22Z</time>
      </trkpt>
      <trkpt lat="44.47394" lon="6.85111">
        <ele>2458.9812011719</ele>
        <time>2016-01-18T10:38:32Z</time>
      </trkpt>
      <trkpt lat="44.47401" lon="6.85115">
        <ele>2458.9812011719</ele>
        <time>2016-01-18T10:38:42Z</time>
      </trkpt>
      <trkpt lat="44.47406" lon="6.85124">
        <ele>2458.9812011719</ele>
        <time>2016-01-18T10:38:52Z</time>
      </trkpt>
      <trkpt lat="44.4741" lon="6.85132">
        <ele>2458.9812011719</ele>
        <time>2016-01-18T10:39:04Z</time>
      </trkpt>
      <trkpt lat="44.47409" lon="6.85151">
        <ele>2458.9812011719</ele>
        <time>2016-01-18T10:39:24Z</time>
      </trkpt>
      <trkpt lat="44.4741" lon="6.85162">
        <ele>2458.9812011719</ele>
        <time>2016-01-18T10:39:42Z</time>
      </trkpt>
      <trkpt lat="44.4741" lon="6.85163">
        <ele>2458.9812011719</ele>
        <time>2016-01-18T10:39:52Z</time>
      </trkpt>
      <trkpt lat="44.47403" lon="6.85166">
        <ele>2458.9812011719</ele>
        <time>2016-01-18T10:40:04Z</time>
      </trkpt>
      <trkpt lat="44.474" lon="6.85169">
        <ele>2458.9812011719</ele>
        <time>2016-01-18T10:40:24Z</time>
      </trkpt>
      <trkpt lat="44.47405" lon="6.85188">
        <ele>2458.9812011719</ele>
        <time>2016-01-18T10:41:04Z</time>
      </trkpt>
      <trkpt lat="44.47409" lon="6.85188">
        <ele>2458.9812011719</ele>
        <time>2016-01-18T10:41:14Z</time>
      </trkpt>
      <trkpt lat="44.47414" lon="6.85188">
        <ele>2505.3107910156</ele>
        <time>2016-01-18T10:41:34Z</time>
      </trkpt>
      <trkpt lat="44.47424" lon="6.85183">
        <ele>2506.4919433594</ele>
        <time>2016-01-18T10:41:44Z</time>
      </trkpt>
      <trkpt lat="44.47427" lon="6.85181">
        <ele>2506.5288085938</ele>
        <time>2016-01-18T10:42:04Z</time>
      </trkpt>
      <trkpt lat="44.47427" lon="6.85179">
        <ele>2506.5288085938</ele>
        <time>2016-01-18T10:42:14Z</time>
      </trkpt>
      <trkpt lat="44.47429" lon="6.85177">
        <ele>2509.6257324219</ele>
        <time>2016-01-18T10:42:24Z</time>
      </trkpt>
      <trkpt lat="44.4743" lon="6.85176">
        <ele>2509.7314453125</ele>
        <time>2016-01-18T10:42:54Z</time>
      </trkpt>
      <trkpt lat="44.47458" lon="6.85206">
        <ele>2526.28515625</ele>
        <time>2016-01-18T10:45:45Z</time>
      </trkpt>
      <trkpt lat="44.47459" lon="6.852">
        <ele>2526.6232910156</ele>
        <time>2016-01-18T10:46:11Z</time>
      </trkpt>
      <trkpt lat="44.47473" lon="6.85213">
        <ele>2526.6735839844</ele>
        <time>2016-01-18T10:46:28Z</time>
      </trkpt>
      <trkpt lat="44.47446" lon="6.85245">
        <ele>2541.2958984375</ele>
        <time>2016-01-18T10:50:44Z</time>
      </trkpt>
      <trkpt lat="44.47466" lon="6.85241">
        <ele>2542.4743652344</ele>
        <time>2016-01-18T10:51:32Z</time>
      </trkpt>
      <trkpt lat="44.47463" lon="6.85244">
        <ele>2542.4743652344</ele>
        <time>2016-01-18T10:51:43Z</time>
      </trkpt>
      <trkpt lat="44.47457" lon="6.85245">
        <ele>2542.4743652344</ele>
        <time>2016-01-18T10:52:13Z</time>
      </trkpt>
      <trkpt lat="44.47455" lon="6.85248">
        <ele>2547.6716308594</ele>
        <time>2016-01-18T10:52:24Z</time>
      </trkpt>
      <trkpt lat="44.47456" lon="6.85253">
        <ele>2547.6716308594</ele>
        <time>2016-01-18T10:52:34Z</time>
      </trkpt>
      <trkpt lat="44.47466" lon="6.85268">
        <ele>2547.6716308594</ele>
        <time>2016-01-18T10:53:12Z</time>
      </trkpt>
      <trkpt lat="44.47468" lon="6.85273">
        <ele>2547.6716308594</ele>
        <time>2016-01-18T10:53:24Z</time>
      </trkpt>
      <trkpt lat="44.4748" lon="6.85281">
        <ele>2553.6193847656</ele>
        <time>2016-01-18T10:54:03Z</time>
      </trkpt>
      <trkpt lat="44.47477" lon="6.85274">
        <ele>2553.6193847656</ele>
        <time>2016-01-18T10:54:23Z</time>
      </trkpt>
      <trkpt lat="44.47475" lon="6.85271">
        <ele>2553.6193847656</ele>
        <time>2016-01-18T10:54:43Z</time>
      </trkpt>
      <trkpt lat="44.47475" lon="6.85272">
        <ele>2557.16796875</ele>
        <time>2016-01-18T10:55:03Z</time>
      </trkpt>
      <trkpt lat="44.47485" lon="6.85269">
        <ele>2557.7573242188</ele>
        <time>2016-01-18T10:55:20Z</time>
      </trkpt>
      <trkpt lat="44.47501" lon="6.8528">
        <ele>2557.7573242188</ele>
        <time>2016-01-18T10:58:59Z</time>
      </trkpt>
      <trkpt lat="44.47501" lon="6.85278">
        <ele>2557.7573242188</ele>
        <time>2016-01-18T10:59:18Z</time>
      </trkpt>
      <trkpt lat="44.47503" lon="6.85278">
        <ele>2557.7573242188</ele>
        <time>2016-01-18T10:59:28Z</time>
      </trkpt>
      <trkpt lat="44.47503" lon="6.85277">
        <ele>2557.7573242188</ele>
        <time>2016-01-18T10:59:46Z</time>
      </trkpt>
      <trkpt lat="44.47504" lon="6.85277">
        <ele>2557.7573242188</ele>
        <time>2016-01-18T10:59:56Z</time>
      </trkpt>
      <trkpt lat="44.47505" lon="6.85276">
        <ele>2557.7573242188</ele>
        <time>2016-01-18T11:00:08Z</time>
      </trkpt>
      <trkpt lat="44.47511" lon="6.85276">
        <ele>2557.7573242188</ele>
        <time>2016-01-18T11:00:28Z</time>
      </trkpt>
      <trkpt lat="44.47509" lon="6.85278">
        <ele>2557.7573242188</ele>
        <time>2016-01-18T11:00:46Z</time>
      </trkpt>
      <trkpt lat="44.47509" lon="6.85278">
        <ele>2557.7573242188</ele>
        <time>2016-01-18T11:00:56Z</time>
      </trkpt>
      <trkpt lat="44.47508" lon="6.85278">
        <ele>2557.7573242188</ele>
        <time>2016-01-18T11:01:06Z</time>
      </trkpt>
      <trkpt lat="44.47508" lon="6.85278">
        <ele>2557.7573242188</ele>
        <time>2016-01-18T11:01:16Z</time>
      </trkpt>
      <trkpt lat="44.47508" lon="6.85278">
        <ele>2557.7573242188</ele>
        <time>2016-01-18T11:01:26Z</time>
      </trkpt>
      <trkpt lat="44.47508" lon="6.85278">
        <ele>2557.7573242188</ele>
        <time>2016-01-18T11:01:46Z</time>
      </trkpt>
      <trkpt lat="44.47508" lon="6.85278">
        <ele>2572.4245605469</ele>
        <time>2016-01-18T11:01:56Z</time>
      </trkpt>
      <trkpt lat="44.47508" lon="6.85278">
        <ele>2572.7893066406</ele>
        <time>2016-01-18T11:02:56Z</time>
      </trkpt>
      <trkpt lat="44.4751" lon="6.85282">
        <ele>2574.5727539062</ele>
        <time>2016-01-18T11:07:20Z</time>
      </trkpt>
      <trkpt lat="44.47511" lon="6.85281">
        <ele>2574.046875</ele>
        <time>2016-01-18T11:07:38Z</time>
      </trkpt>
      <trkpt lat="44.47506" lon="6.85279">
        <ele>2575.6481933594</ele>
        <time>2016-01-18T11:12:27Z</time>
      </trkpt>
      <trkpt lat="44.47508" lon="6.8528">
        <ele>2577.1833496094</ele>
        <time>2016-01-18T11:15:33Z</time>
      </trkpt>
      <trkpt lat="44.47515" lon="6.85292">
        <ele>2578.0075683594</ele>
        <time>2016-01-18T11:20:25Z</time>
      </trkpt>
      <trkpt lat="44.47515" lon="6.85292">
        <ele>2578.0075683594</ele>
        <time>2016-01-18T11:20:36Z</time>
      </trkpt>
      <trkpt lat="44.47515" lon="6.85292">
        <ele>2578.0075683594</ele>
        <time>2016-01-18T11:20:46Z</time>
      </trkpt>
      <trkpt lat="44.47512" lon="6.85285">
        <ele>2578.0075683594</ele>
        <time>2016-01-18T11:20:56Z</time>
      </trkpt>
      <trkpt lat="44.47511" lon="6.85282">
        <ele>2578.0075683594</ele>
        <time>2016-01-18T11:21:06Z</time>
      </trkpt>
      <trkpt lat="44.47515" lon="6.85284">
        <ele>2578.0075683594</ele>
        <time>2016-01-18T11:21:16Z</time>
      </trkpt>
      <trkpt lat="44.47512" lon="6.85282">
        <ele>2578.0075683594</ele>
        <time>2016-01-18T11:21:27Z</time>
      </trkpt>
      <trkpt lat="44.47508" lon="6.8528">
        <ele>2577.9838867188</ele>
        <time>2016-01-18T11:21:47Z</time>
      </trkpt>
      <trkpt lat="44.47507" lon="6.85281">
        <ele>2577.4765625</ele>
        <time>2016-01-18T11:24:44Z</time>
      </trkpt>
      <trkpt lat="44.47507" lon="6.85282">
        <ele>2577.4765625</ele>
        <time>2016-01-18T11:25:02Z</time>
      </trkpt>
      <trkpt lat="44.47507" lon="6.85282">
        <ele>2577.4765625</ele>
        <time>2016-01-18T11:25:12Z</time>
      </trkpt>
      <trkpt lat="44.47507" lon="6.85282">
        <ele>2577.4765625</ele>
        <time>2016-01-18T11:25:24Z</time>
      </trkpt>
      <trkpt lat="44.47506" lon="6.85282">
        <ele>2577.4765625</ele>
        <time>2016-01-18T11:25:34Z</time>
      </trkpt>
      <trkpt lat="44.47509" lon="6.85289">
        <ele>2577.4765625</ele>
        <time>2016-01-18T11:25:52Z</time>
      </trkpt>
      <trkpt lat="44.47514" lon="6.853">
        <ele>2577.4765625</ele>
        <time>2016-01-18T11:26:02Z</time>
      </trkpt>
      <trkpt lat="44.47513" lon="6.853">
        <ele>2577.4765625</ele>
        <time>2016-01-18T11:26:12Z</time>
      </trkpt>
      <trkpt lat="44.47512" lon="6.853">
        <ele>2577.4765625</ele>
        <time>2016-01-18T11:26:22Z</time>
      </trkpt>
      <trkpt lat="44.47512" lon="6.853">
        <ele>2577.4765625</ele>
        <time>2016-01-18T11:26:34Z</time>
      </trkpt>
      <trkpt lat="44.47512" lon="6.853">
        <ele>2577.4765625</ele>
        <time>2016-01-18T11:26:52Z</time>
      </trkpt>
      <trkpt lat="44.47501" lon="6.85303">
        <ele>2580.5971679688</ele>
        <time>2016-01-18T11:29:47Z</time>
      </trkpt>
      <trkpt lat="44.47503" lon="6.85315">
        <ele>2580.6499023438</ele>
        <time>2016-01-18T11:32:40Z</time>
      </trkpt>
      <trkpt lat="44.47473" lon="6.85321">
        <ele>2594.2709960938</ele>
        <time>2016-01-18T11:34:34Z</time>
      </trkpt>
      <trkpt lat="44.47471" lon="6.85314">
        <ele>2594.2709960938</ele>
        <time>2016-01-18T11:34:54Z</time>
      </trkpt>
      <trkpt lat="44.47442" lon="6.85349">
        <ele>2594.2709960938</ele>
        <time>2016-01-18T11:42:05Z</time>
      </trkpt>
      <trkpt lat="44.47427" lon="6.85361">
        <ele>2620.7041015625</ele>
        <time>2016-01-18T11:49:29Z</time>
      </trkpt>
      <trkpt lat="44.47417" lon="6.85356">
        <ele>2621.8933105469</ele>
        <time>2016-01-18T11:50:28Z</time>
      </trkpt>
      <trkpt lat="44.47417" lon="6.85356">
        <ele>2621.8933105469</ele>
        <time>2016-01-18T11:50:39Z</time>
      </trkpt>
      <trkpt lat="44.47413" lon="6.85361">
        <ele>2637.5725097656</ele>
        <time>2016-01-18T12:02:21Z</time>
      </trkpt>
      <trkpt lat="44.47413" lon="6.85361">
        <ele>2637.6833496094</ele>
        <time>2016-01-18T12:02:22Z</time>
      </trkpt>
      <trkpt lat="44.47407" lon="6.85369">
        <ele>2642.9865722656</ele>
        <time>2016-01-18T12:04:34Z</time>
      </trkpt>
      <trkpt lat="44.47407" lon="6.85372">
        <ele>2643.5280761719</ele>
        <time>2016-01-18T12:04:44Z</time>
      </trkpt>
      <trkpt lat="44.47405" lon="6.85372">
        <ele>2643.6364746094</ele>
        <time>2016-01-18T12:04:54Z</time>
      </trkpt>
      <trkpt lat="44.47406" lon="6.85371">
        <ele>2643.3908691406</ele>
        <time>2016-01-18T12:05:04Z</time>
      </trkpt>
      <trkpt lat="44.47406" lon="6.85383">
        <ele>2642.5373535156</ele>
        <time>2016-01-18T12:10:44Z</time>
      </trkpt>
      <trkpt lat="44.47406" lon="6.85382">
        <ele>2642.5373535156</ele>
        <time>2016-01-18T12:10:54Z</time>
      </trkpt>
      <trkpt lat="44.47403" lon="6.85377">
        <ele>2642.4448242188</ele>
        <time>2016-01-18T12:12:03Z</time>
      </trkpt>
      <trkpt lat="44.47393" lon="6.85371">
        <ele>2652.8447265625</ele>
        <time>2016-01-18T12:17:20Z</time>
      </trkpt>
      <trkpt lat="44.47394" lon="6.85371">
        <ele>2653.169921875</ele>
        <time>2016-01-18T12:18:03Z</time>
      </trkpt>
      <trkpt lat="44.47407" lon="6.8536">
        <ele>2639.953125</ele>
        <time>2016-01-18T12:33:38Z</time>
      </trkpt>
      <trkpt lat="44.47409" lon="6.85357">
        <ele>2639.953125</ele>
        <time>2016-01-18T12:33:48Z</time>
      </trkpt>
      <trkpt lat="44.47439" lon="6.85341">
        <ele>2618.2204589844</ele>
        <time>2016-01-18T12:48:52Z</time>
      </trkpt>
      <trkpt lat="44.47475" lon="6.85304">
        <ele>2608.1850585938</ele>
        <time>2016-01-18T12:57:32Z</time>
      </trkpt>
      <trkpt lat="44.47472" lon="6.85295">
        <ele>2608.1850585938</ele>
        <time>2016-01-18T12:58:42Z</time>
      </trkpt>
      <trkpt lat="44.47472" lon="6.85295">
        <ele>2598.0439453125</ele>
        <time>2016-01-18T12:58:52Z</time>
      </trkpt>
      <trkpt lat="44.47472" lon="6.85295">
        <ele>2598.4165039062</ele>
        <time>2016-01-18T12:59:02Z</time>
      </trkpt>
      <trkpt lat="44.47498" lon="6.85286">
        <ele>2598.4165039062</ele>
        <time>2016-01-18T12:59:52Z</time>
      </trkpt>
      <trkpt lat="44.47504" lon="6.85285">
        <ele>2586.185546875</ele>
        <time>2016-01-18T13:01:07Z</time>
      </trkpt>
      <trkpt lat="44.47505" lon="6.85284">
        <ele>2587.7946777344</ele>
        <time>2016-01-18T13:02:09Z</time>
      </trkpt>
      <trkpt lat="44.47501" lon="6.85287">
        <ele>2587.7946777344</ele>
        <time>2016-01-18T13:02:18Z</time>
      </trkpt>
      <trkpt lat="44.4752" lon="6.85274">
        <ele>2587.4855957031</ele>
        <time>2016-01-18T13:02:49Z</time>
      </trkpt>
      <trkpt lat="44.47514" lon="6.85275">
        <ele>2587.1630859375</ele>
        <time>2016-01-18T13:05:07Z</time>
      </trkpt>
      <trkpt lat="44.47509" lon="6.85271">
        <ele>2587.2687988281</ele>
        <time>2016-01-18T13:07:12Z</time>
      </trkpt>
      <trkpt lat="44.47513" lon="6.8528">
        <ele>2587.1630859375</ele>
        <time>2016-01-18T13:08:35Z</time>
      </trkpt>
      <trkpt lat="44.47486" lon="6.85275">
        <ele>2587.1630859375</ele>
        <time>2016-01-18T13:14:11Z</time>
      </trkpt>
      <trkpt lat="44.47489" lon="6.85272">
        <ele>2586.9465332031</ele>
        <time>2016-01-18T13:14:21Z</time>
      </trkpt>
      <trkpt lat="44.47496" lon="6.85271">
        <ele>2587.59375</ele>
        <time>2016-01-18T13:14:39Z</time>
      </trkpt>
      <trkpt lat="44.47502" lon="6.85269">
        <ele>2586.732421875</ele>
        <time>2016-01-18T13:15:52Z</time>
      </trkpt>
      <trkpt lat="44.47502" lon="6.85268">
        <ele>2587.0231933594</ele>
        <time>2016-01-18T13:16:12Z</time>
      </trkpt>
      <trkpt lat="44.47502" lon="6.85271">
        <ele>2587.0231933594</ele>
        <time>2016-01-18T13:17:10Z</time>
      </trkpt>
      <trkpt lat="44.47503" lon="6.85273">
        <ele>2586.6928710938</ele>
        <time>2016-01-18T13:20:47Z</time>
      </trkpt>
      <trkpt lat="44.47504" lon="6.85272">
        <ele>2586.4470214844</ele>
        <time>2016-01-18T13:21:33Z</time>
      </trkpt>
      <trkpt lat="44.47504" lon="6.85272">
        <ele>2586.5158691406</ele>
        <time>2016-01-18T13:21:43Z</time>
      </trkpt>
      <trkpt lat="44.47504" lon="6.85272">
        <ele>2586.4074707031</ele>
        <time>2016-01-18T13:21:53Z</time>
      </trkpt>
      <trkpt lat="44.4751" lon="6.85269">
        <ele>2586.4074707031</ele>
        <time>2016-01-18T13:22:03Z</time>
      </trkpt>
      <trkpt lat="44.47509" lon="6.85269">
        <ele>2586.4074707031</ele>
        <time>2016-01-18T13:22:13Z</time>
      </trkpt>
      <trkpt lat="44.47507" lon="6.85277">
        <ele>2585.33203125</ele>
        <time>2016-01-18T13:25:48Z</time>
      </trkpt>
      <trkpt lat="44.47502" lon="6.85264">
        <ele>2585.33203125</ele>
        <time>2016-01-18T13:26:06Z</time>
      </trkpt>
      <trkpt lat="44.47503" lon="6.85263">
        <ele>2567.4782714844</ele>
        <time>2016-01-18T13:26:53Z</time>
      </trkpt>
      <trkpt lat="44.47381" lon="6.85149">
        <ele>2508.5104980469</ele>
        <time>2016-01-18T13:29:52Z</time>
      </trkpt>
      <trkpt lat="44.47389" lon="6.8515">
        <ele>2504.1481933594</ele>
        <time>2016-01-18T13:30:18Z</time>
      </trkpt>
      <trkpt lat="44.47387" lon="6.85155">
        <ele>2503.8654785156</ele>
        <time>2016-01-18T13:30:36Z</time>
      </trkpt>
      <trkpt lat="44.47389" lon="6.85151">
        <ele>2503.8310546875</ele>
        <time>2016-01-18T13:31:05Z</time>
      </trkpt>
      <trkpt lat="44.47376" lon="6.85096">
        <ele>2492.5354003906</ele>
        <time>2016-01-18T13:31:43Z</time>
      </trkpt>
      <trkpt lat="44.47354" lon="6.85006">
        <ele>2485.3933105469</ele>
        <time>2016-01-18T13:31:53Z</time>
      </trkpt>
      <trkpt lat="44.47305" lon="6.84918">
        <ele>2485.3933105469</ele>
        <time>2016-01-18T13:32:13Z</time>
      </trkpt>
      <trkpt lat="44.4727" lon="6.84867">
        <ele>2485.3933105469</ele>
        <time>2016-01-18T13:32:33Z</time>
      </trkpt>
      <trkpt lat="44.47273" lon="6.84863">
        <ele>2485.3933105469</ele>
        <time>2016-01-18T13:32:51Z</time>
      </trkpt>
      <trkpt lat="44.47117" lon="6.84806">
        <ele>2361.8327636719</ele>
        <time>2016-01-18T13:40:06Z</time>
      </trkpt>
      <trkpt lat="44.47005" lon="6.8498">
        <ele>2332.4108886719</ele>
        <time>2016-01-18T13:44:04Z</time>
      </trkpt>
      <trkpt lat="44.4678" lon="6.85076">
        <ele>2293.9157714844</ele>
        <time>2016-01-18T13:47:48Z</time>
      </trkpt>
      <trkpt lat="44.46635" lon="6.84859">
        <ele>2214.2775878906</ele>
        <time>2016-01-18T13:51:56Z</time>
      </trkpt>
      <trkpt lat="44.4664" lon="6.84841">
        <ele>2208.0920410156</ele>
        <time>2016-01-18T13:52:00Z</time>
      </trkpt>
      <trkpt lat="44.46623" lon="6.84836">
        <ele>2197.4091796875</ele>
        <time>2016-01-18T13:52:04Z</time>
      </trkpt>
      <trkpt lat="44.46548" lon="6.84812">
        <ele>2148.5139160156</ele>
        <time>2016-01-18T13:52:21Z</time>
      </trkpt>
      <trkpt lat="44.46533" lon="6.84812">
        <ele>2142.5424804688</ele>
        <time>2016-01-18T13:52:33Z</time>
      </trkpt>
      <trkpt lat="44.4653" lon="6.8481">
        <ele>2142.4499511719</ele>
        <time>2016-01-18T13:52:43Z</time>
      </trkpt>
      <trkpt lat="44.46537" lon="6.84802">
        <ele>2142.6691894531</ele>
        <time>2016-01-18T13:53:01Z</time>
      </trkpt>
      <trkpt lat="44.46535" lon="6.84805">
        <ele>2142.978515625</ele>
        <time>2016-01-18T13:53:56Z</time>
      </trkpt>
      <trkpt lat="44.4654" lon="6.84807">
        <ele>2144.109375</ele>
        <time>2016-01-18T13:54:15Z</time>
      </trkpt>
      <trkpt lat="44.46539" lon="6.84806">
        <ele>2144.4184570312</ele>
        <time>2016-01-18T13:54:33Z</time>
      </trkpt>
      <trkpt lat="44.46539" lon="6.84806">
        <ele>2144.2651367188</ele>
        <time>2016-01-18T13:54:41Z</time>
      </trkpt>
      <trkpt lat="44.46534" lon="6.84808">
        <ele>2143.3879394531</ele>
        <time>2016-01-18T13:55:26Z</time>
      </trkpt>
      <trkpt lat="44.46534" lon="6.84808">
        <ele>2143.0815429688</ele>
        <time>2016-01-18T13:55:36Z</time>
      </trkpt>
      <trkpt lat="44.46532" lon="6.84808">
        <ele>2142.0510253906</ele>
        <time>2016-01-18T13:56:44Z</time>
      </trkpt>
      <trkpt lat="44.46532" lon="6.84808">
        <ele>2142.0510253906</ele>
        <time>2016-01-18T13:57:04Z</time>
      </trkpt>
      <trkpt lat="44.4638" lon="6.84695">
        <ele>2097.6845703125</ele>
        <time>2016-01-18T13:58:42Z</time>
      </trkpt>
      <trkpt lat="44.46342" lon="6.84659">
        <ele>2096.1547851562</ele>
        <time>2016-01-18T13:59:02Z</time>
      </trkpt>
      <trkpt lat="44.46342" lon="6.84659">
        <ele>2096.1547851562</ele>
        <time>2016-01-18T13:59:12Z</time>
      </trkpt>
      <trkpt lat="44.46327" lon="6.84668">
        <ele>2084.3806152344</ele>
        <time>2016-01-18T14:00:49Z</time>
      </trkpt>
      <trkpt lat="44.46322" lon="6.84678">
        <ele>2082.8454589844</ele>
        <time>2016-01-18T14:01:42Z</time>
      </trkpt>
      <trkpt lat="44.46319" lon="6.84572">
        <ele>2076.3271484375</ele>
        <time>2016-01-18T14:02:02Z</time>
      </trkpt>
      <trkpt lat="44.46301" lon="6.84559">
        <ele>2060.9780273438</ele>
        <time>2016-01-18T14:02:22Z</time>
      </trkpt>
      <trkpt lat="44.46306" lon="6.84557">
        <ele>2060.9780273438</ele>
        <time>2016-01-18T14:02:42Z</time>
      </trkpt>
      <trkpt lat="44.46306" lon="6.84557">
        <ele>2047.4099121094</ele>
        <time>2016-01-18T14:02:49Z</time>
      </trkpt>
      <trkpt lat="44.46231" lon="6.84533">
        <ele>2047.4099121094</ele>
        <time>2016-01-18T14:03:07Z</time>
      </trkpt>
      <trkpt lat="44.46226" lon="6.84521">
        <ele>2047.4099121094</ele>
        <time>2016-01-18T14:03:17Z</time>
      </trkpt>
      <trkpt lat="44.46226" lon="6.84522">
        <ele>2047.4099121094</ele>
        <time>2016-01-18T14:03:27Z</time>
      </trkpt>
      <trkpt lat="44.46226" lon="6.84522">
        <ele>2047.4099121094</ele>
        <time>2016-01-18T14:03:37Z</time>
      </trkpt>
      <trkpt lat="44.46226" lon="6.84522">
        <ele>2047.4099121094</ele>
        <time>2016-01-18T14:03:47Z</time>
      </trkpt>
      <trkpt lat="44.46226" lon="6.84522">
        <ele>2047.4099121094</ele>
        <time>2016-01-18T14:03:57Z</time>
      </trkpt>
      <trkpt lat="44.46225" lon="6.84523">
        <ele>2047.4099121094</ele>
        <time>2016-01-18T14:04:07Z</time>
      </trkpt>
      <trkpt lat="44.46199" lon="6.84532">
        <ele>2047.4099121094</ele>
        <time>2016-01-18T14:04:17Z</time>
      </trkpt>
      <trkpt lat="44.46167" lon="6.84536">
        <ele>2047.4099121094</ele>
        <time>2016-01-18T14:04:27Z</time>
      </trkpt>
      <trkpt lat="44.46153" lon="6.84528">
        <ele>2047.4099121094</ele>
        <time>2016-01-18T14:04:37Z</time>
      </trkpt>
      <trkpt lat="44.46152" lon="6.84525">
        <ele>1997.8990478516</ele>
        <time>2016-01-18T14:04:47Z</time>
      </trkpt>
      <trkpt lat="44.46152" lon="6.84525">
        <ele>1995.3784179688</ele>
        <time>2016-01-18T14:05:01Z</time>
      </trkpt>
      <trkpt lat="44.46072" lon="6.84535">
        <ele>1983.9029541016</ele>
        <time>2016-01-18T14:05:19Z</time>
      </trkpt>
      <trkpt lat="44.46081" lon="6.84536">
        <ele>1983.9029541016</ele>
        <time>2016-01-18T14:05:29Z</time>
      </trkpt>
      <trkpt lat="44.4608" lon="6.84537">
        <ele>1981.3717041016</ele>
        <time>2016-01-18T14:06:04Z</time>
      </trkpt>
      <trkpt lat="44.4572" lon="6.84503">
        <ele>1837.3122558594</ele>
        <time>2016-01-18T14:13:25Z</time>
      </trkpt>
      <trkpt lat="44.45645" lon="6.84544">
        <ele>1837.3122558594</ele>
        <time>2016-01-18T14:13:43Z</time>
      </trkpt>
      <trkpt lat="44.45636" lon="6.84581">
        <ele>1837.3122558594</ele>
        <time>2016-01-18T14:13:54Z</time>
      </trkpt>
      <trkpt lat="44.45632" lon="6.84583">
        <ele>1837.3122558594</ele>
        <time>2016-01-18T14:14:14Z</time>
      </trkpt>
      <trkpt lat="44.45632" lon="6.84592">
        <ele>1807.8905029297</ele>
        <time>2016-01-18T14:14:24Z</time>
      </trkpt>
      <trkpt lat="44.45624" lon="6.84594">
        <ele>1808.4030761719</ele>
        <time>2016-01-18T14:14:52Z</time>
      </trkpt>
      <trkpt lat="44.45525" lon="6.84675">
        <ele>1763.6192626953</ele>
        <time>2016-01-18T14:17:27Z</time>
      </trkpt>
      <trkpt lat="44.45513" lon="6.84685">
        <ele>1763.6192626953</ele>
        <time>2016-01-18T14:17:43Z</time>
      </trkpt>
      <trkpt lat="44.45525" lon="6.84674">
        <ele>1763.6192626953</ele>
        <time>2016-01-18T14:17:55Z</time>
      </trkpt>
      <trkpt lat="44.45528" lon="6.84672">
        <ele>1763.6192626953</ele>
        <time>2016-01-18T14:18:05Z</time>
      </trkpt>
      <trkpt lat="44.45529" lon="6.84671">
        <ele>1763.6192626953</ele>
        <time>2016-01-18T14:18:15Z</time>
      </trkpt>
      <trkpt lat="44.45529" lon="6.84671">
        <ele>1763.6192626953</ele>
        <time>2016-01-18T14:18:33Z</time>
      </trkpt>
      <trkpt lat="44.45531" lon="6.84672">
        <ele>1763.6192626953</ele>
        <time>2016-01-18T14:18:43Z</time>
      </trkpt>
      <trkpt lat="44.45529" lon="6.84673">
        <ele>1763.6192626953</ele>
        <time>2016-01-18T14:18:53Z</time>
      </trkpt>
      <trkpt lat="44.45481" lon="6.84682">
        <ele>1763.6192626953</ele>
        <time>2016-01-18T14:19:03Z</time>
      </trkpt>
      <trkpt lat="44.45439" lon="6.84717">
        <ele>1763.6192626953</ele>
        <time>2016-01-18T14:19:13Z</time>
      </trkpt>
      <trkpt lat="44.45418" lon="6.84763">
        <ele>1730.9951171875</ele>
        <time>2016-01-18T14:19:23Z</time>
      </trkpt>
      <trkpt lat="44.45417" lon="6.84764">
        <ele>1730.8787841797</ele>
        <time>2016-01-18T14:19:33Z</time>
      </trkpt>
      <trkpt lat="44.45417" lon="6.84764">
        <ele>1731.3729248047</ele>
        <time>2016-01-18T14:19:35Z</time>
      </trkpt>
      <trkpt lat="44.45372" lon="6.84837">
        <ele>1722.8833007812</ele>
        <time>2016-01-18T14:19:47Z</time>
      </trkpt>
      <trkpt lat="44.45316" lon="6.84898">
        <ele>1722.8833007812</ele>
        <time>2016-01-18T14:20:06Z</time>
      </trkpt>
      <trkpt lat="44.45195" lon="6.8478">
        <ele>1722.8833007812</ele>
        <time>2016-01-18T14:22:08Z</time>
      </trkpt>
      <trkpt lat="44.4519" lon="6.84774">
        <ele>1722.8833007812</ele>
        <time>2016-01-18T14:22:26Z</time>
      </trkpt>
      <trkpt lat="44.45183" lon="6.84762">
        <ele>1722.8833007812</ele>
        <time>2016-01-18T14:22:36Z</time>
      </trkpt>
      <trkpt lat="44.4517" lon="6.84766">
        <ele>1722.8833007812</ele>
        <time>2016-01-18T14:22:46Z</time>
      </trkpt>
      <trkpt lat="44.45166" lon="6.84754">
        <ele>1722.8833007812</ele>
        <time>2016-01-18T14:22:56Z</time>
      </trkpt>
      <trkpt lat="44.45163" lon="6.84746">
        <ele>1722.8833007812</ele>
        <time>2016-01-18T14:23:08Z</time>
      </trkpt>
      <trkpt lat="44.45156" lon="6.84738">
        <ele>1722.8833007812</ele>
        <time>2016-01-18T14:23:18Z</time>
      </trkpt>
      <trkpt lat="44.45145" lon="6.84728">
        <ele>1722.8833007812</ele>
        <time>2016-01-18T14:23:36Z</time>
      </trkpt>
      <trkpt lat="44.45141" lon="6.84718">
        <ele>1722.8833007812</ele>
        <time>2016-01-18T14:23:46Z</time>
      </trkpt>
      <trkpt lat="44.45117" lon="6.84704">
        <ele>1722.8833007812</ele>
        <time>2016-01-18T14:23:59Z</time>
      </trkpt>
      <trkpt lat="44.45115" lon="6.84688">
        <ele>1722.8833007812</ele>
        <time>2016-01-18T14:24:15Z</time>
      </trkpt>
      <trkpt lat="44.45113" lon="6.84681">
        <ele>1722.8833007812</ele>
        <time>2016-01-18T14:24:25Z</time>
      </trkpt>
      <trkpt lat="44.45112" lon="6.84679">
        <ele>1722.8833007812</ele>
        <time>2016-01-18T14:24:35Z</time>
      </trkpt>
      <trkpt lat="44.45106" lon="6.84671">
        <ele>1722.8833007812</ele>
        <time>2016-01-18T14:24:45Z</time>
      </trkpt>
      <trkpt lat="44.45096" lon="6.84667">
        <ele>1722.8833007812</ele>
        <time>2016-01-18T14:24:55Z</time>
      </trkpt>
      <trkpt lat="44.45088" lon="6.8467">
        <ele>1722.8833007812</ele>
        <time>2016-01-18T14:25:05Z</time>
      </trkpt>
      <trkpt lat="44.45079" lon="6.84672">
        <ele>1722.8833007812</ele>
        <time>2016-01-18T14:25:15Z</time>
      </trkpt>
      <trkpt lat="44.4507" lon="6.84676">
        <ele>1722.8833007812</ele>
        <time>2016-01-18T14:25:25Z</time>
      </trkpt>
      <trkpt lat="44.45063" lon="6.84686">
        <ele>1722.8833007812</ele>
        <time>2016-01-18T14:25:35Z</time>
      </trkpt>
      <trkpt lat="44.45058" lon="6.847">
        <ele>1680.3664550781</ele>
        <time>2016-01-18T14:25:45Z</time>
      </trkpt>
      <trkpt lat="44.45052" lon="6.84708">
        <ele>1680.9398193359</ele>
        <time>2016-01-18T14:25:55Z</time>
      </trkpt>
      <trkpt lat="44.45044" lon="6.84703">
        <ele>1680.9398193359</ele>
        <time>2016-01-18T14:26:05Z</time>
      </trkpt>
      <trkpt lat="44.45002" lon="6.847">
        <ele>1676.1229248047</ele>
        <time>2016-01-18T14:29:23Z</time>
      </trkpt>
      <trkpt lat="44.45" lon="6.84708">
        <ele>1675.9168701172</ele>
        <time>2016-01-18T14:30:03Z</time>
      </trkpt>
      <trkpt lat="44.45" lon="6.84708">
        <ele>1675.9168701172</ele>
        <time>2016-01-18T14:30:13Z</time>
      </trkpt>
      <trkpt lat="44.45" lon="6.84708">
        <ele>1675.9168701172</ele>
        <time>2016-01-18T14:31:03Z</time>
      </trkpt>
      <trkpt lat="44.45" lon="6.84708">
        <ele>1675.9168701172</ele>
        <time>2016-01-18T14:31:13Z</time>
      </trkpt>
      <trkpt lat="44.45" lon="6.84708">
        <ele>1675.9168701172</ele>
        <time>2016-01-18T14:31:33Z</time>
      </trkpt>
    </trkseg>
  </trk>
</gpx>